Terminal Aerodrome Forecast
Issued by NWS Lake Charles, LA

Home | Current Version | Previous Version | Text Only | Print | Product List | Glossary On
Versions: 1 2 3 4 5 6 7 8 9 10 11 12 13 14 15 16 17 18 19
000
FTUS44 KLCH 232330
TAFLFT
TAF
KLFT 232330Z 2400/2424 17008KT P6SM FEW035
     FM240500 15006KT 6SM BR BKN015
     FM241600 17013G19KT P6SM OVC025
     FM241900 18016G23KT P6SM BKN035=

USA.gov is the U.S. government's official web portal to all federal, state and local government web resources and services.